Time;durP1;ratioP1;P1;durP2;ratioP2;P2;SDS_P1;SDS_P2;PMS_P1;PMS_P2;Temp;Humidity;BMP_temperature;BMP_pressure;BME280_temperature;BME280_humidity;BME280_pressure;Samples;Min_cycle;Max_cycle;Signal;HPM_P1;HPM_P2
2020/12/07 00:01:52;;;;;;;4.47;2.53;;;3.50;99.90;;;;;;5072291;28;20020;-78
2020/12/07 00:04:18;;;;;;;2.85;2.38;;;3.40;99.90;;;;;;5089132;28;20036;-78
2020/12/07 00:06:44;;;;;;;4.05;2.63;;;3.40;99.90;;;;;;5072314;28;20024;-78
2020/12/07 00:09:09;;;;;;;3.67;2.90;;;3.40;99.90;;;;;;5072258;28;20032;-77
2020/12/07 00:11:35;;;;;;;4.38;2.42;;;3.40;99.90;;;;;;5072181;28;20075;-78
2020/12/07 00:14:01;;;;;;;4.05;2.45;;;3.30;99.90;;;;;;5072175;28;20071;-80
2020/12/07 00:16:27;;;;;;;4.13;2.60;;;3.30;99.90;;;;;;5073266;28;20020;-78
2020/12/07 00:18:53;;;;;;;3.58;2.55;;;3.30;99.90;;;;;;5089010;28;20025;-79
2020/12/07 00:21:19;;;;;;;5.22;2.45;;;3.40;99.90;;;;;;5072070;28;20032;-78
2020/12/07 00:23:46;;;;;;;3.22;2.72;;;3.30;99.90;;;;;;5073429;28;20027;-78
2020/12/07 00:26:12;;;;;;;3.65;2.38;;;3.20;99.90;;;;;;5073669;28;20028;-78
2020/12/07 00:28:38;;;;;;;3.25;2.40;;;3.20;99.90;;;;;;5072145;28;20033;-78
2020/12/07 00:31:04;;;;;;;3.33;2.30;;;3.20;99.90;;;;;;5072095;28;20543;-78
2020/12/07 00:33:32;;;;;;;2.22;1.98;;;3.30;99.90;;;;;;5073611;28;20025;-79
2020/12/07 00:35:57;;;;;;;4.22;2.60;;;3.10;99.90;;;;;;5088885;28;20075;-78
2020/12/07 00:38:23;;;;;;;3.05;2.15;;;3.20;99.90;;;;;;5073470;28;20395;-78
2020/12/07 00:40:49;;;;;;;2.35;1.83;;;3.20;99.90;;;;;;5073494;28;20025;-78
2020/12/07 00:43:15;;;;;;;3.20;1.92;;;3.20;99.90;;;;;;5077267;28;20024;-78
2020/12/07 00:45:40;;;;;;;2.38;1.80;;;3.30;99.90;;;;;;5077434;28;20059;-78
2020/12/07 00:48:06;;;;;;;2.95;2.15;;;3.20;99.90;;;;;;5077179;28;20035;-78
2020/12/07 00:50:32;;;;;;;2.65;2.20;;;3.20;99.90;;;;;;5092684;28;20115;-78
2020/12/07 00:52:57;;;;;;;3.17;1.90;;;3.30;99.90;;;;;;5075787;28;20032;-79
2020/12/07 00:55:23;;;;;;;4.53;2.03;;;3.30;99.90;;;;;;5077272;28;20024;-78
2020/12/07 00:57:49;;;;;;;3.53;2.00;;;3.30;99.90;;;;;;5075659;28;20024;-78
2020/12/07 01:00:14;;;;;;;4.18;2.00;;;3.40;99.90;;;;;;5077167;28;20025;-79
2020/12/07 01:02:40;;;;;;;3.22;1.90;;;3.40;99.90;;;;;;5076872;28;20376;-78
2020/12/07 01:05:06;;;;;;;3.83;2.20;;;3.30;99.90;;;;;;5075533;28;20391;-78
2020/12/07 01:07:32;;;;;;;5.93;2.28;;;3.30;99.90;;;;;;5076704;28;20034;-79
2020/12/07 01:09:57;;;;;;;3.20;1.77;;;3.30;99.90;;;;;;5092382;28;20107;-79
2020/12/07 01:12:23;;;;;;;3.53;2.50;;;3.40;99.90;;;;;;5075419;28;20365;-78
2020/12/07 01:14:51;;;;;;;3.13;2.00;;;3.40;99.90;;;;;;5075378;28;20024;-78
2020/12/07 01:17:17;;;;;;;3.55;2.17;;;3.30;99.90;;;;;;5091953;28;20049;-79
2020/12/07 01:19:44;;;;;;;3.60;1.95;;;3.30;99.90;;;;;;5092157;28;20031;-78
2020/12/07 01:22:10;;;;;;;2.95;2.00;;;3.30;99.90;;;;;;5076519;28;20025;-79
2020/12/07 01:24:35;;;;;;;2.70;1.98;;;3.20;99.90;;;;;;5058652;28;20060;-78
2020/12/07 01:27:01;;;;;;;1.98;1.75;;;3.00;99.90;;;;;;5075176;28;20053;-79
2020/12/07 01:29:27;;;;;;;2.95;2.15;;;3.00;99.90;;;;;;5076374;28;20388;-79
2020/12/07 01:31:52;;;;;;;3.40;1.88;;;3.10;99.90;;;;;;5075053;28;20024;-79
2020/12/07 01:34:18;;;;;;;2.15;1.90;;;3.10;99.90;;;;;;5076299;28;20121;-78
2020/12/07 01:36:44;;;;;;;2.30;2.08;;;3.20;99.90;;;;;;5076268;28;20025;-79
2020/12/07 01:39:10;;;;;;;2.60;2.30;;;3.20;99.90;;;;;;5076402;28;20092;-78
2020/12/07 01:41:35;;;;;;;2.88;2.40;;;3.10;99.90;;;;;;5074889;28;20028;-78
2020/12/07 01:44:01;;;;;;;3.03;2.30;;;3.00;99.90;;;;;;5076166;28;20024;-78
2020/12/07 01:46:27;;;;;;;2.90;2.33;;;3.00;99.90;;;;;;5074753;28;20027;-78
2020/12/07 01:48:53;;;;;;;3.38;2.75;;;2.90;99.90;;;;;;5091630;28;20059;-78
2020/12/07 01:51:21;;;;;;;3.45;2.33;;;2.90;99.90;;;;;;5075943;28;20028;-79
2020/12/07 01:53:47;;;;;;;2.60;2.25;;;3.00;99.90;;;;;;5090779;28;20415;-78
2020/12/07 01:56:19;;;;;;;5.28;2.60;;;3.10;99.90;;;;;;5091490;28;20035;-78
2020/12/07 01:58:45;;;;;;;3.90;2.63;;;3.10;99.90;;;;;;5074567;28;20032;-78
2020/12/07 02:01:10;;;;;;;4.32;3.00;;;3.00;99.90;;;;;;5075792;28;20021;-78
2020/12/07 02:03:36;;;;;;;4.10;2.60;;;3.10;99.90;;;;;;5074534;28;20059;-78
2020/12/07 02:06:02;;;;;;;5.13;2.45;;;3.10;99.90;;;;;;5074419;28;20035;-79
2020/12/07 02:08:27;;;;;;;4.13;2.88;;;3.00;99.90;;;;;;5074319;28;20024;-79
2020/12/07 02:10:53;;;;;;;2.83;2.40;;;3.10;99.90;;;;;;5074366;28;20051;-78
2020/12/07 02:13:19;;;;;;;3.65;2.35;;;3.00;99.90;;;;;;5074572;28;20070;-78
2020/12/07 02:15:44;;;;;;;4.57;2.47;;;3.20;99.90;;;;;;5074291;28;20032;-79
2020/12/07 02:18:10;;;;;;;3.78;2.38;;;3.20;99.90;;;;;;5073998;28;20545;-79
2020/12/07 02:20:36;;;;;;;3.70;2.20;;;3.20;99.90;;;;;;5074153;28;20035;-78
2020/12/07 02:23:02;;;;;;;2.60;1.70;;;3.30;99.90;;;;;;5074112;28;20021;-78
2020/12/07 02:25:28;;;;;;;2.30;2.10;;;3.20;99.90;;;;;;5074096;28;20028;-78
2020/12/07 02:27:54;;;;;;;2.30;2.03;;;3.20;99.90;;;;;;5074269;28;20024;-78
2020/12/07 02:30:22;;;;;;;3.70;2.25;;;3.10;99.90;;;;;;5090864;28;20024;-78
2020/12/07 02:32:49;;;;;;;4.00;2.30;;;3.00;99.90;;;;;;5073923;28;20120;-78
2020/12/07 02:35:15;;;;;;;2.83;2.40;;;3.00;99.90;;;;;;5090777;28;20119;-78
2020/12/07 02:37:43;;;;;;;2.58;2.35;;;3.10;99.90;;;;;;5075073;28;20472;-78
2020/12/07 02:40:09;;;;;;;2.67;2.17;;;3.10;99.90;;;;;;5075358;28;20503;-78
2020/12/07 02:42:37;;;;;;;5.20;2.80;;;3.00;99.90;;;;;;5073735;28;20021;-79
2020/12/07 02:45:05;;;;;;;2.80;2.40;;;3.00;99.90;;;;;;5090564;28;20070;-78
2020/12/07 02:47:32;;;;;;;3.28;2.38;;;3.10;99.90;;;;;;5090435;28;20573;-79
2020/12/07 02:49:58;;;;;;;2.17;1.98;;;3.10;99.90;;;;;;5074830;28;20090;-78
2020/12/07 02:52:28;;;;;;;3.75;2.50;;;3.10;99.90;;;;;;5090414;28;20031;-78
2020/12/07 02:54:55;;;;;;;2.75;1.95;;;3.10;99.90;;;;;;5090313;28;20032;-78
2020/12/07 02:57:22;;;;;;;1.80;1.70;;;3.20;99.90;;;;;;5090303;28;20031;-79
2020/12/07 02:59:48;;;;;;;3.80;2.00;;;3.20;99.90;;;;;;5073391;28;20112;-78
2020/12/07 03:02:14;;;;;;;2.33;2.03;;;3.20;99.90;;;;;;5090275;28;20102;-78
2020/12/07 03:04:40;;;;;;;3.97;2.20;;;3.20;99.90;;;;;;5074740;28;20115;-78
2020/12/07 03:07:06;;;;;;;6.03;3.85;;;3.20;99.90;;;;;;5074489;28;20059;-78
2020/12/07 03:09:32;;;;;;;3.47;2.47;;;3.00;99.90;;;;;;5090032;28;20028;-78
2020/12/07 03:11:58;;;;;;;2.33;2.10;;;3.00;99.90;;;;;;5073153;28;20039;-78
2020/12/07 03:14:24;;;;;;;4.97;2.13;;;2.90;99.90;;;;;;5073098;28;20059;-78
2020/12/07 03:16:50;;;;;;;2.88;1.98;;;2.90;99.90;;;;;;5072895;28;20048;-78
2020/12/07 03:19:16;;;;;;;3.05;2.00;;;3.00;99.90;;;;;;5072958;28;20458;-78
2020/12/07 03:21:42;;;;;;;4.10;2.70;;;3.10;99.90;;;;;;5072909;28;20120;-78
2020/12/07 03:24:08;;;;;;;2.78;2.40;;;3.10;99.90;;;;;;5072907;28;20027;-78
2020/12/07 03:26:34;;;;;;;6.45;2.72;;;2.90;99.90;;;;;;5074405;28;20028;-78
2020/12/07 03:29:02;;;;;;;4.50;1.92;;;2.90;99.90;;;;;;5074129;28;20492;-78
2020/12/07 03:31:29;;;;;;;4.28;2.10;;;3.00;99.90;;;;;;5089696;28;20074;-78
2020/12/07 03:33:54;;;;;;;2.72;2.28;;;2.80;99.90;;;;;;5074037;28;20024;-79
2020/12/07 03:36:20;;;;;;;2.88;2.60;;;2.90;99.90;;;;;;5089863;28;20028;-78
2020/12/07 03:38:46;;;;;;;2.92;2.10;;;2.80;99.90;;;;;;5072501;28;20028;-78
2020/12/07 03:41:11;;;;;;;2.13;1.92;;;2.90;99.90;;;;;;5074353;28;20354;-78
2020/12/07 03:43:37;;;;;;;2.22;1.90;;;2.90;99.90;;;;;;5072549;28;20031;-78
2020/12/07 03:46:03;;;;;;;2.63;2.42;;;2.90;99.90;;;;;;5073676;28;20516;-78
2020/12/07 03:48:28;;;;;;;2.95;2.42;;;2.80;99.90;;;;;;5072557;28;20025;-78
2020/12/07 03:50:54;;;;;;;3.35;2.58;;;2.70;99.90;;;;;;5073769;28;20060;-78
2020/12/07 03:53:20;;;;;;;2.80;2.50;;;2.70;99.90;;;;;;5072407;28;20032;-78
2020/12/07 03:55:45;;;;;;;2.55;2.08;;;2.80;99.90;;;;;;5073634;28;20505;-78
2020/12/07 03:58:11;;;;;;;4.00;2.65;;;2.80;99.90;;;;;;5073831;28;20029;-79
2020/12/07 04:00:37;;;;;;;3.38;2.50;;;2.80;99.90;;;;;;5073613;28;20091;-78
2020/12/07 04:03:05;;;;;;;3.08;2.33;;;2.80;99.90;;;;;;5089244;28;20028;-78
2020/12/07 04:05:37;;;;;;;2.45;2.25;;;2.80;99.90;;;;;;5073630;28;20044;-79
2020/12/07 04:08:02;;;;;;;2.72;2.50;;;2.90;99.90;;;;;;5072307;28;20037;-79
2020/12/07 04:10:28;;;;;;;3.80;2.40;;;2.90;99.90;;;;;;5072295;28;20028;-79
2020/12/07 04:12:54;;;;;;;4.63;2.60;;;2.90;99.90;;;;;;5072272;28;20024;-78
2020/12/07 04:15:19;;;;;;;3.47;2.80;;;2.80;99.90;;;;;;5071740;28;20028;-79
2020/12/07 04:17:45;;;;;;;3.95;2.50;;;2.90;99.90;;;;;;5071959;28;20093;-78
2020/12/07 04:20:11;;;;;;;3.13;2.50;;;2.70;99.90;;;;;;5072182;28;20020;-79
2020/12/07 04:22:36;;;;;;;2.75;2.30;;;2.60;99.90;;;;;;5072131;28;20471;-78
2020/12/07 04:25:03;;;;;;;3.47;2.90;;;2.70;99.90;;;;;;5073381;28;20028;-78
2020/12/07 04:27:28;;;;;;;3.92;2.85;;;2.70;99.90;;;;;;5073391;28;20495;-78
2020/12/07 04:29:54;;;;;;;4.60;3.13;;;2.70;99.90;;;;;;5072133;28;20020;-78
2020/12/07 04:32:20;;;;;;;3.03;2.53;;;2.80;99.90;;;;;;5072022;28;20035;-78
2020/12/07 04:34:45;;;;;;;2.92;2.60;;;2.80;99.90;;;;;;5088836;28;20392;-78
2020/12/07 04:37:11;;;;;;;4.07;2.63;;;2.90;99.90;;;;;;5072023;28;20472;-79
2020/12/07 04:39:37;;;;;;;4.00;3.35;;;2.90;99.90;;;;;;5073476;28;20361;-78
2020/12/07 04:42:03;;;;;;;3.13;2.50;;;2.90;99.90;;;;;;5088755;28;20530;-79
2020/12/07 04:44:29;;;;;;;4.03;3.08;;;2.90;99.90;;;;;;5073274;28;20013;-78
2020/12/07 04:46:58;;;;;;;4.32;3.08;;;2.90;99.90;;;;;;5073196;28;20048;-78
2020/12/07 04:49:27;;;;;;;8.20;3.38;;;2.90;99.90;;;;;;5088754;28;20021;-78
2020/12/07 04:51:53;;;;;;;4.35;3.25;;;3.00;99.90;;;;;;5073403;28;20029;-78
2020/12/07 04:54:20;;;;;;;3.03;2.42;;;3.00;99.90;;;;;;5073098;28;20028;-79
2020/12/07 04:56:46;;;;;;;3.53;3.10;;;3.00;99.90;;;;;;5088639;28;20078;-79
2020/12/07 04:59:14;;;;;;;4.65;3.22;;;3.10;99.90;;;;;;5088517;28;20036;-79
2020/12/07 05:01:40;;;;;;;6.25;3.10;;;3.00;99.90;;;;;;5088529;28;20024;-79
2020/12/07 05:04:05;;;;;;;3.70;2.58;;;3.10;99.90;;;;;;5071747;28;20027;-78
2020/12/07 05:06:31;;;;;;;4.43;3.67;;;3.00;99.90;;;;;;5071679;28;20476;-78
2020/12/07 05:08:58;;;;;;;5.53;3.60;;;2.90;99.90;;;;;;5071628;28;20021;-78
2020/12/07 05:11:27;;;;;;;4.97;3.67;;;2.80;99.90;;;;;;5071613;28;20031;-79
2020/12/07 05:14:03;;;;;;;3.22;2.53;;;2.80;99.90;;;;;;5072946;28;20024;-79
2020/12/07 05:16:29;;;;;;;3.55;2.80;;;2.80;99.90;;;;;;5072966;28;20025;-79
2020/12/07 05:18:55;;;;;;;4.03;2.80;;;2.80;99.90;;;;;;5073049;28;20035;-79
2020/12/07 05:21:20;;;;;;;4.28;2.90;;;2.90;99.90;;;;;;5071561;28;20024;-79
2020/12/07 05:23:51;;;;;;;4.32;3.30;;;3.00;99.90;;;;;;5072847;28;20055;-79
2020/12/07 05:26:18;;;;;;;2.90;2.20;;;3.00;99.90;;;;;;5088401;28;20426;-79
2020/12/07 05:28:48;;;;;;;3.92;2.70;;;3.00;99.90;;;;;;5075544;28;20039;-78
2020/12/07 05:31:20;;;;;;;4.03;3.15;;;3.00;99.90;;;;;;5092088;28;20024;-79
2020/12/07 05:33:47;;;;;;;3.83;2.85;;;3.10;99.90;;;;;;5092032;28;20067;-79
2020/12/07 05:36:14;;;;;;;3.22;2.80;;;3.10;99.90;;;;;;5075037;28;20025;-79
2020/12/07 05:38:42;;;;;;;4.30;3.67;;;3.20;99.90;;;;;;5076167;28;20024;-79
2020/12/07 05:41:08;;;;;;;3.92;2.80;;;3.10;99.90;;;;;;5076475;28;20402;-79
2020/12/07 05:43:37;;;;;;;5.80;3.53;;;3.10;99.90;;;;;;5091821;28;20024;-79
2020/12/07 05:46:04;;;;;;;3.30;2.33;;;3.10;99.90;;;;;;5076044;28;20383;-79
2020/12/07 05:48:32;;;;;;;7.20;4.05;;;3.30;99.90;;;;;;5076086;28;20021;-79
2020/12/07 05:51:06;;;;;;;5.80;4.20;;;3.20;99.90;;;;;;5091596;28;20052;-79
2020/12/07 05:53:37;;;;;;;6.22;3.53;;;3.20;99.90;;;;;;5091678;28;20507;-78
2020/12/07 05:56:04;;;;;;;5.30;3.92;;;3.20;99.90;;;;;;5091566;28;20063;-79
2020/12/07 05:58:35;;;;;;;4.72;3.30;;;3.10;99.90;;;;;;5091491;28;20028;-80
2020/12/07 06:01:03;;;;;;;6.20;4.28;;;3.20;99.90;;;;;;5074597;28;20119;-80
2020/12/07 06:03:30;;;;;;;5.85;4.75;;;3.20;99.90;;;;;;5091449;28;20479;-80
2020/12/07 06:05:56;;;;;;;5.95;4.78;;;3.20;99.90;;;;;;5075732;28;20419;-80
2020/12/07 06:08:30;;;;;;;10.25;7.20;;;3.10;99.90;;;;;;5076006;28;20031;-80
2020/12/07 06:11:16;;;;;;;5.07;4.57;;;3.00;99.90;;;;;;5075633;28;20074;-81
2020/12/07 06:13:42;;;;;;;5.22;4.22;;;3.00;99.90;;;;;;5075682;28;20442;-80
2020/12/07 06:16:07;;;;;;;7.05;4.90;;;3.00;99.90;;;;;;5074135;28;20067;-80
2020/12/07 06:18:34;;;;;;;14.30;8.27;;;3.00;99.90;;;;;;5074072;28;20127;-81
2020/12/07 06:21:10;;;;;;;22.23;10.50;;;3.00;99.90;;;;;;5091076;28;20356;-81
2020/12/07 06:23:40;;;;;;;15.70;9.43;;;2.90;99.90;;;;;;5091047;28;20043;-81
2020/12/07 06:26:09;;;;;;;14.70;9.70;;;2.90;99.90;;;;;;5091001;28;20067;-80
2020/12/07 06:28:37;;;;;;;19.05;9.65;;;2.90;99.90;;;;;;5075611;28;20024;-80
2020/12/07 06:31:05;;;;;;;9.75;6.50;;;2.80;99.90;;;;;;5075272;28;20028;-80
2020/12/07 06:33:38;;;;;;;12.68;8.18;;;2.80;99.90;;;;;;5075129;28;20036;-81
2020/12/07 06:36:04;;;;;;;10.57;8.18;;;2.80;99.90;;;;;;5075191;28;20028;-81
2020/12/07 06:38:43;;;;;;;11.13;7.78;;;2.70;99.90;;;;;;5073371;28;20024;-81
2020/12/07 06:41:08;;;;;;;7.70;5.70;;;2.60;99.90;;;;;;5090644;28;20025;-80
2020/12/07 06:43:34;;;;;;;9.23;6.70;;;2.60;99.90;;;;;;5073686;28;20150;-81
2020/12/07 06:46:00;;;;;;;9.60;5.68;;;2.50;99.90;;;;;;5073685;28;20384;-81
2020/12/07 06:48:27;;;;;;;8.57;6.35;;;2.50;99.90;;;;;;5075233;28;20040;-80
2020/12/07 06:50:55;;;;;;;10.63;4.90;;;2.60;99.90;;;;;;5090494;28;20028;-81
2020/12/07 06:53:40;;;;;;;10.73;6.40;;;2.60;99.90;;;;;;5073537;28;20033;-81
2020/12/07 06:56:07;;;;;;;11.65;7.95;;;2.60;99.90;;;;;;5090396;28;20388;-81
2020/12/07 06:58:36;;;;;;;7.80;5.30;;;2.60;99.90;;;;;;5074576;28;20031;-81
2020/12/07 07:01:08;;;;;;;7.57;5.05;;;2.70;99.90;;;;;;5090199;28;20049;-81
2020/12/07 07:03:34;;;;;;;6.55;5.28;;;2.70;99.90;;;;;;5074604;28;20024;-81
2020/12/07 07:06:10;;;;;;;7.95;4.60;;;2.70;99.90;;;;;;5073220;28;20435;-81
2020/12/07 07:08:37;;;;;;;8.15;4.63;;;2.80;99.90;;;;;;5073237;28;20025;-81
2020/12/07 07:11:05;;;;;;;6.63;4.78;;;2.90;99.90;;;;;;5073200;28;20430;-81
2020/12/07 07:13:32;;;;;;;10.40;6.15;;;2.90;99.90;;;;;;5074431;28;20380;-80
2020/12/07 07:15:59;;;;;;;8.38;5.40;;;2.90;99.90;;;;;;5089986;28;20025;-80
2020/12/07 07:18:25;;;;;;;7.63;5.13;;;2.80;99.90;;;;;;5072822;28;20048;-80
2020/12/07 07:20:51;;;;;;;7.93;5.45;;;2.90;99.90;;;;;;5073010;28;20377;-80
2020/12/07 07:23:17;;;;;;;9.70;4.95;;;2.90;99.90;;;;;;5073020;28;20052;-80
2020/12/07 07:25:52;;;;;;;7.20;5.20;;;3.00;99.90;;;;;;5074525;28;20025;-81
2020/12/07 07:28:19;;;;;;;7.72;5.28;;;3.00;99.90;;;;;;5072900;28;20430;-81
2020/12/07 07:30:44;;;;;;;6.70;4.70;;;3.00;99.90;;;;;;5074094;28;20052;-81
2020/12/07 07:33:10;;;;;;;6.70;4.85;;;3.00;99.90;;;;;;5072758;28;20059;-80
2020/12/07 07:35:37;;;;;;;7.38;5.85;;;3.10;99.90;;;;;;5072719;28;20123;-81
2020/12/07 07:38:02;;;;;;;13.60;5.93;;;3.10;99.90;;;;;;5072633;28;20495;-81
2020/12/07 07:40:29;;;;;;;9.13;5.60;;;3.00;99.90;;;;;;5072659;28;20054;-81
2020/12/07 07:43:03;;;;;;;7.28;5.10;;;3.10;99.90;;;;;;5074111;28;20016;-81
2020/12/07 07:45:37;;;;;;;5.82;4.00;;;3.20;99.90;;;;;;5073826;28;20384;-81
2020/12/07 07:48:21;;;;;;;7.85;5.63;;;3.40;99.90;;;;;;5089483;28;20498;-81
2020/12/07 07:54:05;;;;;;;7.18;5.35;;;3.70;99.90;;;;;;5073810;28;20033;-80
2020/12/07 08:16:29;;;;;;;9.13;5.07;;;5.00;99.90;;;;;;5068377;28;20044;-81
2020/12/07 08:18:58;;;;;;;9.20;4.70;;;5.10;99.90;;;;;;5073757;28;20463;-81
2020/12/07 08:21:25;;;;;;;7.18;4.85;;;5.20;99.90;;;;;;5073396;28;20353;-81
2020/12/07 08:23:53;;;;;;;5.13;4.10;;;5.10;99.90;;;;;;5073697;28;20020;-81
2020/12/07 08:26:19;;;;;;;6.95;4.72;;;5.30;99.90;;;;;;5073389;28;20024;-81
2020/12/07 08:28:48;;;;;;;7.32;4.80;;;5.50;99.90;;;;;;5072104;28;20111;-81
2020/12/07 08:31:16;;;;;;;7.13;4.80;;;5.70;99.90;;;;;;5072158;28;20028;-81
2020/12/07 08:33:55;;;;;;;7.68;5.18;;;5.70;99.90;;;;;;5073603;28;20027;-81
2020/12/07 08:36:21;;;;;;;5.97;4.38;;;5.50;99.90;;;;;;5073367;28;20125;-81
2020/12/07 08:38:48;;;;;;;7.97;5.10;;;5.40;99.90;;;;;;5088781;28;20442;-81
2020/12/07 08:41:20;;;;;;;10.30;5.35;;;5.30;99.90;;;;;;5088796;28;20048;-81
2020/12/07 08:43:50;;;;;;;7.50;4.85;;;5.10;99.90;;;;;;5088754;28;20016;-81
2020/12/07 08:46:19;;;;;;;11.05;4.72;;;5.30;99.90;;;;;;5088672;28;20411;-81
2020/12/07 08:48:46;;;;;;;6.75;4.70;;;5.30;99.90;;;;;;5073173;28;20503;-80
2020/12/07 08:51:12;;;;;;;5.47;4.22;;;5.40;99.90;;;;;;5071862;28;20081;-81
2020/12/07 08:53:39;;;;;;;8.27;5.03;;;5.30;99.90;;;;;;5088667;28;20116;-81
2020/12/07 08:56:07;;;;;;;9.70;5.70;;;5.60;99.90;;;;;;5088620;28;20024;-80
2020/12/07 08:58:33;;;;;;;7.32;5.28;;;5.50;99.90;;;;;;5088536;28;20028;-80
2020/12/07 09:01:01;;;;;;;7.53;5.80;;;5.70;99.90;;;;;;5073381;28;20055;-84
2020/12/07 09:03:27;;;;;;;6.20;4.75;;;5.80;99.90;;;;;;5092554;28;20131;-80
2020/12/07 09:05:53;;;;;;;14.38;5.72;;;5.60;99.90;;;;;;5092488;28;20049;-80
2020/12/07 09:08:19;;;;;;;6.03;5.10;;;5.60;99.90;;;;;;5076845;28;20099;-80
2020/12/07 09:10:44;;;;;;;5.85;4.60;;;5.50;99.90;;;;;;5076754;28;20063;-80
2020/12/07 09:13:10;;;;;;;9.10;4.93;;;5.40;99.90;;;;;;5076689;28;20028;-81
2020/12/07 09:15:36;;;;;;;7.28;5.35;;;5.30;99.90;;;;;;5075415;28;20032;-80
2020/12/07 09:18:02;;;;;;;7.25;5.18;;;5.40;99.90;;;;;;5076342;28;20041;-80
2020/12/07 09:20:28;;;;;;;8.52;4.38;;;5.50;99.90;;;;;;5076550;28;20031;-81
2020/12/07 09:22:54;;;;;;;6.78;4.88;;;5.70;99.90;;;;;;5076533;28;20472;-81
2020/12/07 09:25:19;;;;;;;7.55;4.30;;;5.80;99.90;;;;;;5076494;28;20048;-81
2020/12/07 09:27:45;;;;;;;6.90;4.88;;;6.00;99.90;;;;;;5075164;28;20031;-81
2020/12/07 09:30:11;;;;;;;9.15;5.07;;;5.90;99.90;;;;;;5076402;28;20100;-80
2020/12/07 09:32:38;;;;;;;5.70;4.50;;;5.60;99.90;;;;;;5076928;28;20082;-80
2020/12/07 09:35:06;;;;;;;6.47;4.50;;;5.10;99.90;;;;;;5074991;28;20040;-81
2020/12/07 09:37:32;;;;;;;7.97;5.15;;;5.20;99.90;;;;;;5091810;28;20361;-81
2020/12/07 09:39:58;;;;;;;8.30;5.60;;;4.80;99.90;;;;;;5074974;28;20031;-80
2020/12/07 09:42:24;;;;;;;9.35;5.22;;;4.60;99.90;;;;;;5076439;28;20091;-81
2020/12/07 09:44:50;;;;;;;8.75;5.63;;;4.60;99.90;;;;;;5076139;28;20078;-80
2020/12/07 09:47:15;;;;;;;6.45;4.57;;;4.20;99.90;;;;;;5074779;28;20032;-81
2020/12/07 09:49:41;;;;;;;7.15;5.65;;;4.20;99.90;;;;;;5091678;28;20479;-81
2020/12/07 09:52:09;;;;;;;6.57;4.82;;;4.30;99.90;;;;;;5074726;28;20032;-80
2020/12/07 09:54:38;;;;;;;6.78;4.90;;;4.20;99.90;;;;;;5074716;28;20051;-80
2020/12/07 09:57:05;;;;;;;7.30;5.43;;;4.30;99.90;;;;;;5075973;28;20020;-80
2020/12/07 09:59:33;;;;;;;8.52;5.32;;;4.30;99.90;;;;;;5075870;28;20496;-80
2020/12/07 10:02:00;;;;;;;9.13;5.53;;;4.30;99.90;;;;;;5074539;28;20025;-81
2020/12/07 10:04:26;;;;;;;6.22;4.32;;;4.40;99.90;;;;;;5075907;28;20040;-80
2020/12/07 10:06:53;;;;;;;7.60;4.38;;;4.40;99.90;;;;;;5074495;28;20536;-82
2020/12/07 10:09:20;;;;;;;5.93;4.50;;;4.60;99.90;;;;;;5091274;28;20418;-83
2020/12/07 10:11:46;;;;;;;6.30;4.28;;;4.60;99.90;;;;;;5091284;28;20472;-82
2020/12/07 10:14:13;;;;;;;5.40;4.25;;;4.50;99.90;;;;;;5090446;28;20031;-82
2020/12/07 10:16:46;;;;;;;10.48;4.80;;;4.60;99.90;;;;;;5075372;28;20373;-81
2020/12/07 10:19:12;;;;;;;6.60;4.25;;;4.70;99.90;;;;;;5074210;28;20070;-82
2020/12/07 10:21:39;;;;;;;8.95;4.43;;;4.70;99.90;;;;;;5075507;28;20025;-81
2020/12/07 10:24:04;;;;;;;6.40;4.47;;;4.70;99.90;;;;;;5075418;28;20031;-82
2020/12/07 10:26:30;;;;;;;12.25;3.88;;;4.70;99.90;;;;;;5075412;28;20024;-80
2020/12/07 10:28:57;;;;;;;5.68;4.25;;;4.70;99.90;;;;;;5074056;28;20032;-83
2020/12/07 10:31:23;;;;;;;6.25;4.07;;;4.70;99.90;;;;;;5090863;28;20025;-83
2020/12/07 10:33:51;;;;;;;6.55;4.65;;;4.70;99.90;;;;;;5090844;28;20394;-82
2020/12/07 10:36:17;;;;;;;5.70;4.50;;;4.70;99.90;;;;;;5075186;28;20035;-80
2020/12/07 10:38:44;;;;;;;6.75;3.47;;;4.90;99.90;;;;;;5090847;28;20075;-83
2020/12/07 10:41:10;;;;;;;5.75;3.92;;;5.00;99.90;;;;;;5073803;28;20020;-82
2020/12/07 10:43:37;;;;;;;8.55;4.25;;;5.10;99.90;;;;;;5073819;28;20453;-81
2020/12/07 10:46:03;;;;;;;6.30;4.50;;;5.10;99.90;;;;;;5074947;28;20361;-81
2020/12/07 10:48:30;;;;;;;6.47;4.80;;;5.00;99.90;;;;;;5090576;28;20472;-83
2020/12/07 10:50:56;;;;;;;5.30;4.43;;;4.90;99.90;;;;;;5073598;28;20028;-82
2020/12/07 10:53:23;;;;;;;6.78;4.50;;;4.90;99.90;;;;;;5073599;28;20383;-81
2020/12/07 10:55:50;;;;;;;4.60;3.60;;;4.80;99.90;;;;;;5090633;28;20499;-83
2020/12/07 10:58:16;;;;;;;5.82;3.80;;;4.80;99.90;;;;;;5090267;28;20024;-82
2020/12/07 11:00:42;;;;;;;4.47;3.22;;;4.80;99.90;;;;;;5073436;28;20020;-86
2020/12/07 11:03:08;;;;;;;4.10;3.13;;;4.80;99.90;;;;;;5073438;28;20024;-81
2020/12/07 11:05:34;;;;;;;5.30;3.85;;;4.70;99.90;;;;;;5074597;28;20103;-82
2020/12/07 11:08:01;;;;;;;3.40;3.05;;;4.60;99.90;;;;;;5074701;28;20380;-83
2020/12/07 11:10:26;;;;;;;7.70;3.15;;;4.60;99.90;;;;;;5075072;28;20052;-82
2020/12/07 11:13:05;;;;;;;4.22;3.40;;;4.60;99.90;;;;;;5074320;28;20407;-80
2020/12/07 11:15:31;;;;;;;5.88;3.65;;;4.60;99.90;;;;;;5073140;28;20135;-83
2020/12/07 11:17:56;;;;;;;3.55;2.75;;;4.50;99.90;;;;;;5072855;28;20131;-82
2020/12/07 11:20:22;;;;;;;6.95;3.80;;;4.50;99.90;;;;;;5073029;28;20549;-82
2020/12/07 11:22:48;;;;;;;5.03;3.50;;;4.50;99.90;;;;;;5073250;28;20052;-81
2020/12/07 11:25:14;;;;;;;6.10;4.68;;;4.50;99.90;;;;;;5073462;28;20376;-82
2020/12/07 11:27:41;;;;;;;5.00;3.80;;;4.50;99.90;;;;;;5074272;28;20079;-83
2020/12/07 11:30:07;;;;;;;4.57;3.50;;;4.50;99.90;;;;;;5072784;28;20024;-84
2020/12/07 11:32:33;;;;;;;4.28;3.50;;;4.40;99.90;;;;;;5072806;28;20468;-83
2020/12/07 11:34:59;;;;;;;4.65;3.90;;;4.30;99.90;;;;;;5072819;28;20028;-83
2020/12/07 11:37:25;;;;;;;5.57;3.95;;;4.40;99.90;;;;;;5074018;28;20467;-83
2020/12/07 11:40:09;;;;;;;7.40;5.28;;;4.50;99.90;;;;;;5072600;28;20031;-83
2020/12/07 11:45:06;;;;;;;20.75;12.35;;;4.70;99.90;;;;;;5074508;28;20029;-85
2020/12/07 11:47:32;;;;;;;9.38;6.22;;;4.60;99.90;;;;;;5089382;28;20021;-84
2020/12/07 11:49:58;;;;;;;6.82;5.07;;;4.50;99.90;;;;;;5073824;28;20463;-84
2020/12/07 11:52:24;;;;;;;13.63;7.78;;;4.50;99.90;;;;;;5073919;28;20025;-82
2020/12/07 11:54:49;;;;;;;7.10;5.07;;;4.50;99.90;;;;;;5073132;28;20537;-83
2020/12/07 11:57:15;;;;;;;11.30;7.28;;;4.50;99.90;;;;;;5072805;28;20060;-83
2020/12/07 11:59:41;;;;;;;9.88;7.45;;;4.40;99.90;;;;;;5072317;28;20032;-83
2020/12/07 12:02:07;;;;;;;16.58;10.63;;;4.30;99.90;;;;;;5073947;28;20466;-83
2020/12/07 12:04:33;;;;;;;23.15;12.07;;;4.20;99.90;;;;;;5072385;28;20180;-83
2020/12/07 12:06:59;;;;;;;12.70;9.45;;;4.10;99.90;;;;;;5073740;28;20025;-83
2020/12/07 12:09:25;;;;;;;7.15;5.60;;;4.10;99.90;;;;;;5073626;28;20025;-84
2020/12/07 12:11:50;;;;;;;8.18;5.72;;;4.20;99.90;;;;;;5072319;28;20078;-84
2020/12/07 12:14:16;;;;;;;8.52;6.50;;;4.10;99.90;;;;;;5089195;28;20553;-83
2020/12/07 12:16:42;;;;;;;6.85;4.88;;;4.20;99.90;;;;;;5072055;28;20400;-83
2020/12/07 12:19:11;;;;;;;5.80;4.47;;;4.10;99.90;;;;;;5072082;28;20067;-83
2020/12/07 12:21:38;;;;;;;8.00;5.60;;;4.10;99.90;;;;;;5088970;28;20480;-83
2020/12/07 12:24:05;;;;;;;7.03;5.25;;;4.10;99.90;;;;;;5073412;28;20426;-84
2020/12/07 12:26:35;;;;;;;8.95;5.50;;;4.10;99.90;;;;;;5073435;28;20021;-83
2020/12/07 12:29:02;;;;;;;6.72;5.68;;;4.10;99.90;;;;;;5089032;28;20073;-84
2020/12/07 12:31:28;;;;;;;8.20;6.38;;;4.10;99.90;;;;;;5088865;28;20020;-84
2020/12/07 12:33:55;;;;;;;8.70;5.95;;;4.10;99.90;;;;;;5072040;28;20043;-83
2020/12/07 12:36:24;;;;;;;6.57;5.68;;;4.20;99.90;;;;;;5072726;28;20170;-84
2020/12/07 12:38:50;;;;;;;8.07;6.15;;;4.30;99.90;;;;;;5092925;28;20020;-83
2020/12/07 12:41:17;;;;;;;8.38;4.63;;;4.30;99.90;;;;;;5077404;28;20036;-84
2020/12/07 12:43:43;;;;;;;9.20;6.32;;;4.20;99.90;;;;;;5077324;28;20498;-81
2020/12/07 12:46:09;;;;;;;7.63;5.50;;;4.20;99.90;;;;;;5092838;28;20024;-79
2020/12/07 12:48:36;;;;;;;10.20;6.43;;;4.20;99.90;;;;;;5077299;28;20021;-81
2020/12/07 12:51:03;;;;;;;28.08;12.18;;;4.20;99.90;;;;;;5077178;28;20436;-81
2020/12/07 12:53:29;;;;;;;122.30;46.75;;;4.20;99.90;;;;;;5077152;28;20029;-81
2020/12/07 12:55:55;;;;;;;16.20;7.53;;;4.10;99.90;;;;;;5092755;28;20361;-81
2020/12/07 12:58:20;;;;;;;31.50;20.52;;;4.10;99.90;;;;;;5075767;28;20503;-81
2020/12/07 13:00:46;;;;;;;12.77;7.38;;;4.00;99.90;;;;;;5077259;28;20020;-81
2020/12/07 13:03:13;;;;;;;9.10;6.60;;;4.00;99.90;;;;;;5077100;28;20096;-81
2020/12/07 13:05:39;;;;;;;13.23;7.30;;;4.10;99.90;;;;;;5075621;28;20044;-81
2020/12/07 13:08:05;;;;;;;8.90;5.95;;;4.00;99.90;;;;;;5076879;28;20020;-81
2020/12/07 13:10:30;;;;;;;10.23;6.10;;;3.90;99.90;;;;;;5076868;28;20035;-81
2020/12/07 13:12:56;;;;;;;8.48;5.70;;;3.90;99.90;;;;;;5075505;28;20115;-81
2020/12/07 13:15:23;;;;;;;9.80;6.90;;;4.00;99.90;;;;;;5075511;28;20059;-81
2020/12/07 13:17:57;;;;;;;7.97;5.80;;;4.00;99.90;;;;;;5075177;28;20048;-81
2020/12/07 13:20:37;;;;;;;11.48;6.38;;;4.00;99.90;;;;;;5075473;28;20485;-81